NOZ28F EDDH-EDDS
Flight info
| Callsign | NOZ28F |
|---|---|
| Flight time | 0h 53m |
| Altitude | 35000 |
| Route | IDEKO8C/05 IDEKO N850 NIE DCT BERXO DCT SILWE DCT OSBIT P605 TOSTU T726 LBU |
| Aircraft | B738/M-SDE2E3FGHIRWXY/LB1 |
Departure
| Time | 2026-05-07 14:17 |
|---|---|
| Airport | Hamburg Helmut Schmidt Airport (EDDH) |
Arrival
| Time | 2026-05-07 15:10 |
|---|---|
| Airport | Stuttgart Airport (EDDS) |
| Time | Latitude | Longitude | Altitude | Speed | Heading |
|---|---|---|---|---|---|
| 2026-05-07 13:47 | 53.62773 | 10.00274 | 48 ft | 0 kts | 63° |
| 2026-05-07 14:02 | 53.62763 | 10.00241 | 47 ft | 4 kts | 62° |
| 2026-05-07 14:02 | 53.62752 | 10.00205 | 42 ft | 4 kts | 60° |
| 2026-05-07 14:03 | 53.62735 | 10.00177 | 47 ft | 4 kts | 7° |
| 2026-05-07 14:03 | 53.62712 | 10.00186 | 46 ft | 3 kts | 333° |
| 2026-05-07 14:03 | 53.62705 | 10.00192 | 46 ft | 0 kts | 333° |
| 2026-05-07 14:05 | 53.62710 | 10.00188 | 47 ft | 4 kts | 333° |
| 2026-05-07 14:05 | 53.62746 | 10.00158 | 47 ft | 8 kts | 333° |
| 2026-05-07 14:06 | 53.62792 | 10.00117 | 47 ft | 7 kts | 332° |
| 2026-05-07 14:06 | 53.62829 | 10.00065 | 47 ft | 7 kts | 294° |
| 2026-05-07 14:06 | 53.62827 | 10.00000 | 47 ft | 2 kts | 245° |
| 2026-05-07 14:06 | 53.62813 | 9.99975 | 45 ft | 3 kts | 218° |
| 2026-05-07 14:07 | 53.62789 | 9.99951 | 46 ft | 5 kts | 210° |
| 2026-05-07 14:07 | 53.62749 | 9.99911 | 45 ft | 9 kts | 209° |
| 2026-05-07 14:07 | 53.62681 | 9.99848 | 45 ft | 13 kts | 210° |
| 2026-05-07 14:07 | 53.62633 | 9.99727 | 44 ft | 13 kts | 257° |
| 2026-05-07 14:08 | 53.62622 | 9.99613 | 43 ft | 5 kts | 259° |
| 2026-05-07 14:08 | 53.62618 | 9.99577 | 46 ft | 2 kts | 259° |
| 2026-05-07 14:08 | 53.62612 | 9.99525 | 46 ft | 7 kts | 259° |
| 2026-05-07 14:08 | 53.62599 | 9.99417 | 46 ft | 12 kts | 259° |
| 2026-05-07 14:09 | 53.62580 | 9.99253 | 46 ft | 14 kts | 259° |
| 2026-05-07 14:09 | 53.62562 | 9.99096 | 45 ft | 14 kts | 260° |
| 2026-05-07 14:09 | 53.62544 | 9.98930 | 46 ft | 16 kts | 259° |
| 2026-05-07 14:09 | 53.62520 | 9.98716 | 43 ft | 21 kts | 259° |
| 2026-05-07 14:10 | 53.62488 | 9.98436 | 46 ft | 26 kts | 259° |
| 2026-05-07 14:10 | 53.62443 | 9.98142 | 44 ft | 25 kts | 244° |
| 2026-05-07 14:10 | 53.62342 | 9.97913 | 46 ft | 24 kts | 230° |
| 2026-05-07 14:10 | 53.62242 | 9.97710 | 46 ft | 21 kts | 231° |
| 2026-05-07 14:11 | 53.62182 | 9.97562 | 44 ft | 12 kts | 254° |
| 2026-05-07 14:11 | 53.62191 | 9.97447 | 42 ft | 6 kts | 296° |
| 2026-05-07 14:11 | 53.62201 | 9.97422 | 43 ft | 3 kts | 307° |
| 2026-05-07 14:11 | 53.62203 | 9.97417 | 43 ft | 0 kts | 309° |
| 2026-05-07 14:12 | 53.62204 | 9.97415 | 43 ft | 0 kts | 309° |
| 2026-05-07 14:14 | 53.62209 | 9.97406 | 42 ft | 3 kts | 311° |
| 2026-05-07 14:14 | 53.62242 | 9.97369 | 40 ft | 9 kts | 335° |
| 2026-05-07 14:15 | 53.62310 | 9.97358 | 39 ft | 7 kts | 41° |
| 2026-05-07 14:15 | 53.62320 | 9.97374 | 36 ft | 1 kts | 49° |
| 2026-05-07 14:15 | 53.62323 | 9.97379 | 37 ft | 1 kts | 50° |
| 2026-05-07 14:15 | 53.62325 | 9.97384 | 37 ft | 1 kts | 50° |
| 2026-05-07 14:16 | 53.62347 | 9.97427 | 39 ft | 14 kts | 50° |
| 2026-05-07 14:16 | 53.62554 | 9.97847 | 40 ft | 83 kts | 50° |
| 2026-05-07 14:16 | 53.63068 | 9.98890 | 46 ft | 145 kts | 51° |
| 2026-05-07 14:16 | 53.63773 | 10.00311 | 554 ft | 161 kts | 52° |
| 2026-05-07 14:17 | 53.64526 | 10.01802 | 1317 ft | 172 kts | 52° |
| 2026-05-07 14:17 | 53.65288 | 10.03417 | 2107 ft | 179 kts | 53° |
| 2026-05-07 14:17 | 53.66102 | 10.05103 | 2841 ft | 192 kts | 51° |
| 2026-05-07 14:17 | 53.66961 | 10.06823 | 3705 ft | 189 kts | 51° |
| 2026-05-07 14:18 | 53.67853 | 10.08507 | 4381 ft | 196 kts | 49° |
| 2026-05-07 14:18 | 53.68921 | 10.09996 | 4954 ft | 209 kts | 25° |
| 2026-05-07 14:18 | 53.70367 | 10.10294 | 5624 ft | 218 kts | 351° |
| 2026-05-07 14:18 | 53.71842 | 10.09406 | 6130 ft | 235 kts | 335° |
| 2026-05-07 14:19 | 53.73082 | 10.07392 | 6425 ft | 268 kts | 302° |
| 2026-05-07 14:19 | 53.73791 | 10.04361 | 6895 ft | 287 kts | 289° |
| 2026-05-07 14:19 | 53.74409 | 10.01205 | 8072 ft | 276 kts | 288° |
| 2026-05-07 14:19 | 53.74750 | 9.98047 | 9081 ft | 278 kts | 275° |
| 2026-05-07 14:20 | 53.74646 | 9.94720 | 9739 ft | 288 kts | 253° |
| 2026-05-07 14:20 | 53.73889 | 9.91615 | 10689 ft | 285 kts | 245° |
| 2026-05-07 14:20 | 53.73020 | 9.88493 | 11139 ft | 303 kts | 245° |
| 2026-05-07 14:20 | 53.72120 | 9.85143 | 11467 ft | 323 kts | 247° |
| 2026-05-07 14:21 | 53.71213 | 9.81515 | 11715 ft | 344 kts | 248° |
| 2026-05-07 14:21 | 53.70279 | 9.77730 | 12355 ft | 351 kts | 248° |
| 2026-05-07 14:21 | 53.69329 | 9.73918 | 13175 ft | 354 kts | 247° |
| 2026-05-07 14:21 | 53.68360 | 9.70082 | 13954 ft | 357 kts | 247° |
| 2026-05-07 14:22 | 53.67374 | 9.66216 | 14656 ft | 360 kts | 247° |
| 2026-05-07 14:22 | 53.66299 | 9.62383 | 15337 ft | 364 kts | 237° |
| 2026-05-07 14:22 | 53.64585 | 9.59310 | 16002 ft | 369 kts | 216° |
| 2026-05-07 14:22 | 53.62270 | 9.57380 | 16699 ft | 373 kts | 196° |
| 2026-05-07 14:23 | 53.59698 | 9.56648 | 17387 ft | 377 kts | 188° |
| 2026-05-07 14:23 | 53.57061 | 9.56157 | 18020 ft | 382 kts | 187° |
| 2026-05-07 14:23 | 53.55304 | 9.55852 | 18424 ft | 385 kts | 187° |
| 2026-05-07 14:23 | 53.51758 | 9.55227 | 19225 ft | 388 kts | 187° |
| 2026-05-07 14:24 | 53.49073 | 9.54731 | 19842 ft | 389 kts | 188° |
| 2026-05-07 14:24 | 53.46364 | 9.54212 | 20449 ft | 391 kts | 188° |
| 2026-05-07 14:24 | 53.44565 | 9.53862 | 20813 ft | 394 kts | 188° |
| 2026-05-07 14:24 | 53.41835 | 9.53325 | 21379 ft | 396 kts | 188° |
| 2026-05-07 14:25 | 53.39083 | 9.52782 | 21942 ft | 399 kts | 188° |
| 2026-05-07 14:25 | 53.36300 | 9.52234 | 22498 ft | 402 kts | 188° |
| 2026-05-07 14:25 | 53.33519 | 9.51688 | 23032 ft | 405 kts | 188° |
| 2026-05-07 14:25 | 53.30707 | 9.51136 | 23528 ft | 408 kts | 188° |
| 2026-05-07 14:26 | 53.27877 | 9.50578 | 23975 ft | 411 kts | 188° |
| 2026-05-07 14:26 | 53.25019 | 9.50015 | 24409 ft | 413 kts | 188° |
| 2026-05-07 14:26 | 53.22159 | 9.49452 | 24828 ft | 416 kts | 188° |
| 2026-05-07 14:26 | 53.19276 | 9.48886 | 25250 ft | 418 kts | 188° |
| 2026-05-07 14:27 | 53.16377 | 9.48317 | 25639 ft | 421 kts | 188° |
| 2026-05-07 14:27 | 53.13484 | 9.47750 | 26003 ft | 424 kts | 188° |
| 2026-05-07 14:27 | 53.10549 | 9.47175 | 26395 ft | 427 kts | 187° |
| 2026-05-07 14:27 | 53.07589 | 9.46596 | 26789 ft | 429 kts | 188° |
| 2026-05-07 14:28 | 53.04612 | 9.46015 | 27175 ft | 431 kts | 187° |
| 2026-05-07 14:28 | 53.01620 | 9.45432 | 27534 ft | 434 kts | 187° |
| 2026-05-07 14:28 | 52.98614 | 9.44845 | 27857 ft | 437 kts | 188° |
| 2026-05-07 14:28 | 52.95584 | 9.44218 | 28194 ft | 440 kts | 188° |
| 2026-05-07 14:29 | 52.92540 | 9.43564 | 28529 ft | 442 kts | 188° |
| 2026-05-07 14:29 | 52.89484 | 9.42903 | 28877 ft | 444 kts | 188° |
| 2026-05-07 14:29 | 52.86406 | 9.42239 | 29196 ft | 447 kts | 188° |
| 2026-05-07 14:29 | 52.83318 | 9.41578 | 29505 ft | 449 kts | 188° |
| 2026-05-07 14:30 | 52.80213 | 9.40918 | 29811 ft | 451 kts | 188° |
| 2026-05-07 14:30 | 52.77127 | 9.40264 | 30162 ft | 452 kts | 188° |
| 2026-05-07 14:30 | 52.74005 | 9.39604 | 30531 ft | 451 kts | 188° |
| 2026-05-07 14:30 | 52.70889 | 9.38946 | 30885 ft | 451 kts | 187° |
| 2026-05-07 14:31 | 52.67779 | 9.38290 | 31197 ft | 451 kts | 188° |
| 2026-05-07 14:31 | 52.64657 | 9.37692 | 31508 ft | 452 kts | 184° |
| 2026-05-07 14:31 | 52.61510 | 9.37717 | 31810 ft | 452 kts | 175° |
| 2026-05-07 14:31 | 52.58413 | 9.38553 | 32131 ft | 452 kts | 167° |
| 2026-05-07 14:32 | 52.55351 | 9.39720 | 32460 ft | 452 kts | 167° |
| 2026-05-07 14:32 | 52.52290 | 9.40924 | 32778 ft | 452 kts | 166° |
| 2026-05-07 14:32 | 52.49226 | 9.42127 | 33078 ft | 452 kts | 166° |
| 2026-05-07 14:32 | 52.46171 | 9.43311 | 33364 ft | 453 kts | 167° |
| 2026-05-07 14:33 | 52.43093 | 9.44484 | 33658 ft | 453 kts | 167° |
| 2026-05-07 14:33 | 52.40019 | 9.45641 | 33968 ft | 453 kts | 167° |
| 2026-05-07 14:33 | 52.36954 | 9.46785 | 34235 ft | 453 kts | 167° |
| 2026-05-07 14:33 | 52.33887 | 9.47923 | 34545 ft | 451 kts | 167° |
| 2026-05-07 14:34 | 52.30873 | 9.49039 | 34848 ft | 449 kts | 167° |
| 2026-05-07 14:34 | 52.27824 | 9.50165 | 35060 ft | 449 kts | 167° |
| 2026-05-07 14:34 | 52.24766 | 9.51294 | 35060 ft | 452 kts | 167° |
| 2026-05-07 14:35 | 52.18629 | 9.53556 | 35070 ft | 449 kts | 167° |
| 2026-05-07 14:35 | 52.12486 | 9.55815 | 35088 ft | 457 kts | 168° |
| 2026-05-07 14:36 | 52.06158 | 9.57399 | 35087 ft | 463 kts | 176° |
| 2026-05-07 14:36 | 51.99708 | 9.58021 | 35067 ft | 464 kts | 177° |
| 2026-05-07 14:37 | 51.93310 | 9.58600 | 35063 ft | 464 kts | 177° |
| 2026-05-07 14:37 | 51.83689 | 9.59603 | 35063 ft | 461 kts | 176° |
| 2026-05-07 14:38 | 51.77237 | 9.60312 | 35070 ft | 467 kts | 176° |
| 2026-05-07 14:38 | 51.70726 | 9.61029 | 35056 ft | 468 kts | 176° |
| 2026-05-07 14:39 | 51.64261 | 9.61837 | 35056 ft | 469 kts | 176° |
| 2026-05-07 14:39 | 51.57747 | 9.62733 | 35055 ft | 470 kts | 176° |
| 2026-05-07 14:40 | 51.51228 | 9.63622 | 35059 ft | 469 kts | 176° |
| 2026-05-07 14:40 | 51.44721 | 9.64490 | 35048 ft | 469 kts | 176° |
| 2026-05-07 14:41 | 51.38226 | 9.65348 | 35052 ft | 468 kts | 176° |
| 2026-05-07 14:41 | 51.31729 | 9.66203 | 35057 ft | 468 kts | 176° |
| 2026-05-07 14:42 | 51.25248 | 9.67054 | 35050 ft | 467 kts | 176° |
| 2026-05-07 14:42 | 51.18753 | 9.67905 | 35048 ft | 467 kts | 176° |
| 2026-05-07 14:43 | 51.12311 | 9.68746 | 35058 ft | 467 kts | 176° |
| 2026-05-07 14:43 | 51.05843 | 9.69588 | 35040 ft | 467 kts | 176° |
| 2026-05-07 14:44 | 50.99374 | 9.70429 | 35055 ft | 466 kts | 176° |
| 2026-05-07 14:44 | 50.92891 | 9.71268 | 35049 ft | 467 kts | 176° |
| 2026-05-07 14:45 | 50.86413 | 9.72104 | 35039 ft | 467 kts | 176° |
| 2026-05-07 14:45 | 50.79930 | 9.72938 | 35049 ft | 467 kts | 176° |
| 2026-05-07 14:46 | 50.73488 | 9.73766 | 35043 ft | 467 kts | 176° |
| 2026-05-07 14:46 | 50.70240 | 9.74182 | 34898 ft | 470 kts | 176° |
| 2026-05-07 14:46 | 50.66970 | 9.74600 | 34426 ft | 469 kts | 176° |
| 2026-05-07 14:47 | 50.63718 | 9.75016 | 33961 ft | 470 kts | 176° |
| 2026-05-07 14:47 | 50.60462 | 9.75432 | 33423 ft | 468 kts | 176° |
| 2026-05-07 14:47 | 50.57215 | 9.75846 | 32929 ft | 467 kts | 176° |
| 2026-05-07 14:47 | 50.53980 | 9.76258 | 32461 ft | 464 kts | 176° |
| 2026-05-07 14:48 | 50.50775 | 9.76666 | 31992 ft | 461 kts | 176° |
| 2026-05-07 14:48 | 50.47581 | 9.77071 | 31537 ft | 461 kts | 176° |
| 2026-05-07 14:48 | 50.44381 | 9.77477 | 31083 ft | 460 kts | 176° |
| 2026-05-07 14:48 | 50.41199 | 9.77880 | 30634 ft | 460 kts | 176° |
| 2026-05-07 14:49 | 50.37991 | 9.78284 | 30182 ft | 463 kts | 176° |
| 2026-05-07 14:49 | 50.34774 | 9.78690 | 29643 ft | 463 kts | 176° |
| 2026-05-07 14:49 | 50.31555 | 9.79096 | 29140 ft | 464 kts | 176° |
| 2026-05-07 14:49 | 50.28324 | 9.79502 | 28652 ft | 467 kts | 176° |
| 2026-05-07 14:50 | 50.25086 | 9.79909 | 28156 ft | 468 kts | 176° |
| 2026-05-07 14:50 | 50.21862 | 9.80314 | 27667 ft | 469 kts | 176° |
| 2026-05-07 14:50 | 50.18558 | 9.80728 | 27149 ft | 471 kts | 176° |
| 2026-05-07 14:50 | 50.15329 | 9.81132 | 26658 ft | 472 kts | 176° |
| 2026-05-07 14:51 | 50.12058 | 9.81541 | 26156 ft | 472 kts | 176° |
| 2026-05-07 14:51 | 50.08774 | 9.81951 | 25665 ft | 473 kts | 176° |
| 2026-05-07 14:51 | 50.05486 | 9.82362 | 25168 ft | 474 kts | 176° |
| 2026-05-07 14:51 | 50.02199 | 9.82771 | 24672 ft | 473 kts | 176° |
| 2026-05-07 14:52 | 49.98934 | 9.83178 | 24176 ft | 467 kts | 176° |
| 2026-05-07 14:52 | 49.95708 | 9.83579 | 23681 ft | 461 kts | 176° |
| 2026-05-07 14:52 | 49.92528 | 9.83974 | 23135 ft | 457 kts | 176° |
| 2026-05-07 14:52 | 49.89354 | 9.84367 | 22602 ft | 458 kts | 176° |
| 2026-05-07 14:53 | 49.86162 | 9.84761 | 22093 ft | 458 kts | 176° |
| 2026-05-07 14:53 | 49.83037 | 9.85147 | 21608 ft | 456 kts | 176° |
| 2026-05-07 14:53 | 49.79829 | 9.85543 | 21114 ft | 455 kts | 176° |
| 2026-05-07 14:53 | 49.76716 | 9.85926 | 20635 ft | 453 kts | 176° |
| 2026-05-07 14:54 | 49.73582 | 9.86312 | 20149 ft | 450 kts | 176° |
| 2026-05-07 14:54 | 49.70470 | 9.86695 | 19667 ft | 447 kts | 177° |
| 2026-05-07 14:54 | 49.67387 | 9.87073 | 19196 ft | 444 kts | 177° |
| 2026-05-07 14:54 | 49.64315 | 9.87450 | 18723 ft | 440 kts | 177° |
| 2026-05-07 14:55 | 49.61268 | 9.87823 | 18246 ft | 437 kts | 177° |
| 2026-05-07 14:55 | 49.58246 | 9.88193 | 17715 ft | 434 kts | 177° |
| 2026-05-07 14:55 | 49.55248 | 9.88559 | 17217 ft | 430 kts | 177° |
| 2026-05-07 14:55 | 49.52296 | 9.88919 | 16736 ft | 420 kts | 177° |
| 2026-05-07 14:56 | 49.49413 | 9.89271 | 16292 ft | 412 kts | 177° |
| 2026-05-07 14:56 | 49.46591 | 9.89267 | 15488 ft | 411 kts | 188° |
| 2026-05-07 14:56 | 49.43811 | 9.88362 | 14961 ft | 405 kts | 198° |
| 2026-05-07 14:56 | 49.41135 | 9.87100 | 14502 ft | 399 kts | 199° |
| 2026-05-07 14:57 | 49.38504 | 9.85851 | 14044 ft | 392 kts | 199° |
| 2026-05-07 14:57 | 49.35919 | 9.84636 | 13588 ft | 384 kts | 198° |
| 2026-05-07 14:57 | 49.33383 | 9.83459 | 13133 ft | 377 kts | 198° |
| 2026-05-07 14:57 | 49.30888 | 9.82313 | 12697 ft | 370 kts | 198° |
| 2026-05-07 14:58 | 49.28436 | 9.81195 | 12273 ft | 363 kts | 198° |
| 2026-05-07 14:58 | 49.26031 | 9.80103 | 11864 ft | 357 kts | 198° |
| 2026-05-07 14:58 | 49.23695 | 9.79045 | 11474 ft | 352 kts | 198° |
| 2026-05-07 14:58 | 49.21367 | 9.77976 | 11094 ft | 347 kts | 199° |
| 2026-05-07 14:59 | 49.19085 | 9.76857 | 10684 ft | 343 kts | 200° |
| 2026-05-07 14:59 | 49.16835 | 9.75727 | 10394 ft | 335 kts | 201° |
| 2026-05-07 14:59 | 49.14650 | 9.74626 | 10155 ft | 328 kts | 201° |
| 2026-05-07 14:59 | 49.12494 | 9.73542 | 9792 ft | 324 kts | 201° |
| 2026-05-07 15:00 | 49.10358 | 9.72471 | 9424 ft | 321 kts | 201° |
| 2026-05-07 15:00 | 49.08251 | 9.71420 | 9063 ft | 319 kts | 200° |
| 2026-05-07 15:00 | 49.06155 | 9.70377 | 8746 ft | 315 kts | 200° |
| 2026-05-07 15:00 | 49.04105 | 9.69361 | 8466 ft | 304 kts | 200° |
| 2026-05-07 15:01 | 49.02132 | 9.68385 | 8200 ft | 293 kts | 200° |
| 2026-05-07 15:01 | 49.00228 | 9.67444 | 7978 ft | 282 kts | 201° |
| 2026-05-07 15:01 | 48.98396 | 9.66538 | 7741 ft | 272 kts | 200° |
| 2026-05-07 15:01 | 48.96622 | 9.65662 | 7543 ft | 264 kts | 201° |
| 2026-05-07 15:02 | 48.94887 | 9.64805 | 7341 ft | 259 kts | 201° |
| 2026-05-07 15:02 | 48.93186 | 9.63965 | 7146 ft | 254 kts | 201° |
| 2026-05-07 15:02 | 48.91525 | 9.63146 | 6975 ft | 249 kts | 201° |
| 2026-05-07 15:02 | 48.89985 | 9.62387 | 6820 ft | 246 kts | 201° |
| 2026-05-07 15:03 | 48.88359 | 9.61585 | 6709 ft | 245 kts | 201° |
| 2026-05-07 15:03 | 48.86739 | 9.60786 | 6566 ft | 244 kts | 201° |
| 2026-05-07 15:03 | 48.85153 | 9.60007 | 6471 ft | 242 kts | 201° |
| 2026-05-07 15:03 | 48.83522 | 9.59203 | 6312 ft | 245 kts | 201° |
| 2026-05-07 15:04 | 48.81918 | 9.58416 | 6200 ft | 245 kts | 201° |
| 2026-05-07 15:04 | 48.80285 | 9.57615 | 6069 ft | 248 kts | 201° |
| 2026-05-07 15:04 | 48.78657 | 9.56818 | 5933 ft | 242 kts | 201° |
| 2026-05-07 15:04 | 48.77074 | 9.56045 | 5786 ft | 235 kts | 201° |
| 2026-05-07 15:05 | 48.75590 | 9.55164 | 5618 ft | 223 kts | 218° |
| 2026-05-07 15:05 | 48.74735 | 9.53357 | 5392 ft | 208 kts | 256° |
| 2026-05-07 15:05 | 48.74452 | 9.51250 | 5163 ft | 201 kts | 259° |
| 2026-05-07 15:05 | 48.74125 | 9.49219 | 4923 ft | 195 kts | 257° |
| 2026-05-07 15:06 | 48.73764 | 9.47276 | 4651 ft | 190 kts | 256° |
| 2026-05-07 15:06 | 48.73398 | 9.45352 | 4292 ft | 190 kts | 256° |
| 2026-05-07 15:06 | 48.73034 | 9.43458 | 4028 ft | 186 kts | 256° |
| 2026-05-07 15:06 | 48.72656 | 9.41593 | 3701 ft | 186 kts | 254° |
| 2026-05-07 15:07 | 48.72261 | 9.39711 | 3320 ft | 190 kts | 256° |
| 2026-05-07 15:07 | 48.71911 | 9.37821 | 3108 ft | 184 kts | 257° |
| 2026-05-07 15:07 | 48.71566 | 9.35976 | 2808 ft | 180 kts | 257° |
| 2026-05-07 15:07 | 48.71259 | 9.34196 | 2569 ft | 168 kts | 258° |
| 2026-05-07 15:08 | 48.70926 | 9.32615 | 2566 ft | 149 kts | 254° |
| 2026-05-07 15:08 | 48.70645 | 9.31132 | 2218 ft | 143 kts | 260° |
| 2026-05-07 15:08 | 48.70374 | 9.29687 | 2017 ft | 142 kts | 259° |
| 2026-05-07 15:08 | 48.70130 | 9.28253 | 1755 ft | 143 kts | 256° |
| 2026-05-07 15:09 | 48.69849 | 9.26763 | 1576 ft | 153 kts | 258° |
| 2026-05-07 15:09 | 48.69557 | 9.25244 | 1356 ft | 147 kts | 257° |
| 2026-05-07 15:09 | 48.69376 | 9.24262 | 1226 ft | 144 kts | 257° |
| 2026-05-07 15:09 | 48.69125 | 9.22929 | 1215 ft | 112 kts | 254° |
| 2026-05-07 15:10 | 48.68949 | 9.22007 | 1245 ft | 70 kts | 252° |
| 2026-05-07 15:10 | 48.68855 | 9.21510 | 1260 ft | 33 kts | 254° |
| 2026-05-07 15:10 | 48.68816 | 9.21194 | 1267 ft | 29 kts | 272° |
| 2026-05-07 15:10 | 48.68842 | 9.20951 | 1275 ft | 18 kts | 285° |
| 2026-05-07 15:11 | 48.68861 | 9.20835 | 1280 ft | 6 kts | 283° |
| 2026-05-07 15:11 | 48.68863 | 9.20822 | 1278 ft | 0 kts | 283° |
| 2026-05-07 15:11 | 48.68864 | 9.20816 | 1279 ft | 2 kts | 283° |
| 2026-05-07 15:12 | 48.68869 | 9.20788 | 1279 ft | 4 kts | 283° |
| 2026-05-07 15:12 | 48.68875 | 9.20748 | 1281 ft | 5 kts | 282° |
| 2026-05-07 15:12 | 48.68879 | 9.20706 | 1282 ft | 4 kts | 274° |
| 2026-05-07 15:12 | 48.68870 | 9.20651 | 1284 ft | 7 kts | 250° |
| 2026-05-07 15:13 | 48.68856 | 9.20574 | 1285 ft | 8 kts | 257° |
| 2026-05-07 15:13 | 48.68843 | 9.20500 | 1288 ft | 7 kts | 253° |
| 2026-05-07 15:13 | 48.68829 | 9.20430 | 1292 ft | 7 kts | 253° |
| 2026-05-07 15:13 | 48.68816 | 9.20363 | 1295 ft | 7 kts | 253° |
| 2026-05-07 15:14 | 48.68803 | 9.20298 | 1299 ft | 6 kts | 253° |
| 2026-05-07 15:14 | 48.68790 | 9.20231 | 1303 ft | 7 kts | 255° |
| 2026-05-07 15:14 | 48.68778 | 9.20157 | 1303 ft | 8 kts | 256° |
| 2026-05-07 15:14 | 48.68761 | 9.20066 | 1303 ft | 9 kts | 255° |
| 2026-05-07 15:15 | 48.68771 | 9.19975 | 1303 ft | 9 kts | 305° |
| 2026-05-07 15:15 | 48.68817 | 9.19899 | 1303 ft | 10 kts | 327° |
| 2026-05-07 15:15 | 48.68883 | 9.19848 | 1303 ft | 11 kts | 307° |
| 2026-05-07 15:15 | 48.68895 | 9.19784 | 1303 ft | 1 kts | 317° |
| 2026-05-07 15:16 | 48.68908 | 9.19788 | 1303 ft | 2 kts | 16° |
| 2026-05-07 15:16 | 48.68939 | 9.19795 | 1303 ft | 6 kts | 353° |
| 2026-05-07 15:16 | 48.68964 | 9.19786 | 1303 ft | 1 kts | 345° |